createdAt,value
2023-10-10T00:01:06.071Z,100.00
2023-10-10T00:03:36.011Z,100.00
2023-10-10T00:06:07.665Z,100.00
2023-10-10T00:08:44.945Z,100.00
2023-10-10T00:11:15.781Z,100.00
2023-10-10T00:13:46.732Z,100.00
2023-10-10T00:16:21.279Z,100.00
2023-10-10T00:18:50.150Z,100.00
2023-10-10T00:21:24.619Z,100.00
2023-10-10T00:23:52.471Z,100.00
2023-10-10T00:26:22.177Z,100.00
2023-10-10T00:28:58.317Z,100.00
2023-10-10T00:31:27.996Z,100.00
2023-10-10T00:33:56.439Z,100.00
2023-10-10T00:36:28.526Z,100.00
2023-10-10T00:39:07.011Z,100.00
2023-10-10T00:41:45.801Z,100.00
2023-10-10T00:44:14.960Z,100.00
2023-10-10T00:46:41.791Z,100.00
2023-10-10T00:49:15.321Z,100.00
2023-10-10T00:51:42.729Z,100.00
2023-10-10T00:54:24.465Z,100.00
2023-10-10T00:56:56.956Z,100.00
2023-10-10T00:59:30.984Z,100.00
2023-10-10T01:01:57.733Z,100.00
2023-10-10T01:04:36.876Z,100.00
2023-10-10T01:07:10.048Z,100.00
2023-10-10T01:09:52.714Z,100.00
2023-10-10T01:12:19.389Z,100.00
2023-10-10T01:14:45.965Z,100.00
2023-10-10T01:17:15.137Z,100.00
2023-10-10T01:19:45.549Z,100.00
2023-10-10T01:22:23.937Z,100.00
2023-10-10T01:24:55.827Z,100.00
2023-10-10T01:27:22.902Z,100.00
2023-10-10T01:29:51.693Z,100.00
2023-10-10T01:32:19.453Z,100.00
2023-10-10T01:34:46.249Z,100.00
2023-10-10T01:37:16.279Z,100.00
2023-10-10T01:39:52.819Z,100.00
2023-10-10T01:42:25.029Z,100.00
2023-10-10T01:44:53.317Z,100.00
2023-10-10T01:47:26.694Z,100.00
2023-10-10T01:49:59.394Z,100.00
2023-10-10T01:52:26.711Z,100.00
2023-10-10T01:54:55.907Z,100.00
2023-10-10T01:57:23.141Z,100.00
2023-10-10T01:59:50.797Z,100.00
2023-10-10T02:02:20.086Z,100.00
2023-10-10T02:04:47.099Z,100.00
2023-10-10T02:07:32.220Z,100.00
2023-10-10T02:10:14.601Z,100.00
2023-10-10T02:12:45.896Z,100.00
2023-10-10T02:15:14.609Z,100.00
2023-10-10T02:17:52.444Z,100.00
2023-10-10T02:20:34.695Z,100.00
2023-10-10T02:23:19.833Z,100.00
2023-10-10T02:25:47.841Z,100.00
2023-10-10T02:28:17.279Z,100.00
2023-10-10T02:30:47.105Z,100.00
2023-10-10T02:33:20.702Z,100.00
2023-10-10T02:35:57.279Z,100.00
2023-10-10T02:38:41.285Z,100.00
2023-10-10T02:41:21.950Z,100.00
2023-10-10T02:43:57.923Z,100.00
2023-10-10T02:46:40.155Z,100.00
2023-10-10T02:49:15.185Z,100.00
2023-10-10T02:51:44.441Z,100.00
2023-10-10T02:54:24.664Z,100.00
2023-10-10T02:56:52.167Z,100.00
2023-10-10T02:59:23.165Z,100.00
2023-10-10T03:02:10.405Z,100.00
2023-10-10T03:04:55.568Z,100.00
2023-10-10T03:07:31.874Z,100.00
2023-10-10T03:10:27.886Z,100.00
2023-10-10T03:13:05.314Z,100.00
2023-10-10T03:15:34.438Z,100.00
2023-10-10T03:18:09.636Z,100.00
2023-10-10T03:20:51.197Z,100.00
2023-10-10T03:23:17.704Z,100.00
2023-10-10T03:26:05.100Z,100.00
2023-10-10T03:28:35.686Z,100.00
2023-10-10T03:31:10.301Z,100.00
2023-10-10T03:33:43.776Z,100.00
2023-10-10T03:36:19.352Z,100.00
2023-10-10T03:38:51.288Z,100.00
2023-10-10T03:41:25.382Z,100.00
2023-10-10T03:44:12.006Z,100.00
2023-10-10T03:46:50.520Z,100.00
2023-10-10T03:49:35.873Z,100.00
2023-10-10T03:52:21.257Z,100.00
2023-10-10T03:55:06.308Z,100.00
2023-10-10T03:57:51.258Z,100.00
2023-10-10T04:00:36.509Z,100.00
2023-10-10T04:03:21.974Z,100.00
2023-10-10T04:06:07.282Z,100.00
2023-10-10T04:08:52.348Z,100.00
2023-10-10T04:11:37.570Z,100.00
2023-10-10T04:14:22.635Z,100.00
2023-10-10T04:17:07.779Z,100.00
2023-10-10T04:19:53.158Z,100.00
2023-10-10T04:22:37.990Z,100.00
2023-10-10T04:25:23.379Z,100.00
2023-10-10T04:28:08.235Z,100.00
2023-10-10T04:30:54.320Z,100.00
2023-10-10T04:33:39.362Z,100.00
2023-10-10T04:36:27.406Z,100.00
2023-10-10T04:39:14.198Z,100.00
2023-10-10T04:41:58.978Z,100.00
2023-10-10T04:44:43.984Z,100.00
2023-10-10T04:47:29.217Z,100.00
2023-10-10T04:50:14.544Z,100.00
2023-10-10T04:52:59.675Z,100.00
2023-10-10T04:55:44.619Z,100.00
2023-10-10T04:58:30.076Z,100.00
2023-10-10T05:01:19.686Z,100.00
2023-10-10T05:04:04.641Z,100.00
2023-10-10T05:06:49.955Z,100.00
2023-10-10T05:09:34.887Z,100.00
2023-10-10T05:12:19.719Z,100.00
2023-10-10T05:15:04.652Z,100.00
2023-10-10T05:17:50.136Z,100.00
2023-10-10T05:20:35.362Z,100.00
2023-10-10T05:23:20.811Z,100.00
2023-10-10T05:25:52.073Z,100.00
2023-10-10T05:28:23.320Z,100.00
2023-10-10T05:30:50.035Z,100.00
2023-10-10T05:33:20.757Z,100.00
2023-10-10T05:35:50.718Z,100.00
2023-10-10T05:38:18.033Z,100.00
2023-10-10T05:40:45.020Z,100.00
2023-10-10T05:43:16.725Z,100.00
2023-10-10T05:45:45.036Z,100.00
2023-10-10T05:48:12.907Z,100.00
2023-10-10T05:50:42.199Z,100.00
2023-10-10T05:53:09.241Z,100.00
2023-10-10T05:55:39.412Z,100.00
2023-10-10T05:58:06.864Z,100.00
2023-10-10T06:00:37.860Z,100.00
2023-10-10T06:03:08.534Z,100.00
2023-10-10T06:05:35.513Z,100.00
2023-10-10T06:08:03.163Z,100.00
2023-10-10T06:10:32.788Z,100.00
2023-10-10T06:13:05.005Z,100.00
2023-10-10T06:15:34.814Z,100.00
2023-10-10T06:18:15.278Z,100.00
2023-10-10T06:20:58.195Z,100.00
2023-10-10T06:23:33.810Z,100.00
2023-10-10T06:26:00.806Z,100.00
2023-10-10T06:28:27.523Z,100.00
2023-10-10T06:30:54.884Z,100.00
2023-10-10T06:33:28.970Z,100.00
2023-10-10T06:36:02.403Z,100.00
2023-10-10T06:38:29.060Z,100.00
2023-10-10T06:40:56.651Z,100.00
2023-10-10T06:43:24.121Z,100.00
2023-10-10T06:45:56.242Z,100.00
2023-10-10T06:48:23.597Z,100.00
2023-10-10T06:50:51.138Z,100.00
2023-10-10T06:53:36.640Z,100.00
2023-10-10T06:56:17.080Z,100.00
2023-10-10T06:58:44.803Z,100.00
2023-10-10T07:01:12.964Z,100.00
2023-10-10T07:03:48.190Z,100.00
2023-10-10T07:06:14.870Z,100.00
2023-10-10T07:08:42.283Z,100.00
2023-10-10T07:11:11.962Z,100.00
2023-10-10T07:13:45.182Z,100.00
2023-10-10T07:16:12.526Z,100.00
2023-10-10T07:18:43.253Z,100.00
2023-10-10T07:21:31.764Z,100.00
2023-10-10T07:24:06.244Z,100.00
2023-10-10T07:26:42.192Z,100.00
2023-10-10T07:29:42.434Z,100.00
2023-10-10T07:32:17.835Z,100.00
2023-10-10T07:34:50.789Z,100.00
2023-10-10T07:37:18.666Z,100.00
2023-10-10T07:39:57.648Z,100.00
2023-10-10T07:42:31.816Z,100.00
2023-10-10T07:44:59.219Z,100.00
2023-10-10T07:47:30.764Z,100.00
2023-10-10T07:50:00.758Z,100.00
2023-10-10T07:52:27.579Z,100.00
2023-10-10T07:54:54.964Z,100.00
2023-10-10T07:57:27.905Z,100.00
2023-10-10T07:59:58.299Z,100.00
2023-10-10T08:02:26.665Z,100.00
2023-10-10T08:04:58.709Z,100.00
2023-10-10T08:07:25.859Z,100.00
2023-10-10T08:10:13.051Z,100.00
2023-10-10T08:12:40.793Z,100.00
2023-10-10T08:15:26.560Z,100.00
2023-10-10T08:18:00.255Z,100.00
2023-10-10T08:20:52.710Z,100.00
2023-10-10T08:23:25.639Z,100.00
2023-10-10T08:25:53.644Z,100.00
2023-10-10T08:28:23.711Z,100.00
2023-10-10T08:30:51.433Z,100.00
2023-10-10T08:33:18.240Z,100.00
2023-10-10T08:35:44.888Z,100.00
2023-10-10T08:38:14.697Z,100.00
2023-10-10T08:40:44.284Z,100.00
2023-10-10T08:43:10.829Z,100.00
2023-10-10T08:45:41.434Z,100.00
2023-10-10T08:48:13.814Z,100.00
2023-10-10T08:50:42.112Z,100.00
2023-10-10T08:53:14.064Z,100.00
2023-10-10T08:55:41.854Z,100.00
2023-10-10T08:58:09.307Z,100.00
2023-10-10T09:00:36.633Z,100.00
2023-10-10T09:03:03.870Z,100.00
2023-10-10T09:05:30.796Z,100.00
2023-10-10T09:08:07.471Z,100.00
2023-10-10T09:10:43.342Z,100.00
2023-10-10T09:13:11.230Z,100.00
2023-10-10T09:15:40.089Z,100.00
2023-10-10T09:18:23.618Z,100.00
2023-10-10T09:20:51.951Z,100.00
2023-10-10T09:23:33.213Z,100.00
2023-10-10T09:26:13.560Z,100.00
2023-10-10T09:28:56.715Z,100.00
2023-10-10T09:31:33.270Z,100.00
2023-10-10T09:34:04.504Z,100.00
2023-10-10T09:36:39.070Z,100.00
2023-10-10T09:39:37.329Z,100.00
2023-10-10T09:42:28.948Z,100.00
2023-10-10T09:45:03.001Z,100.00
2023-10-10T09:47:45.218Z,100.00
2023-10-10T09:50:24.049Z,100.00
2023-10-10T09:52:55.346Z,100.00
2023-10-10T09:55:24.257Z,100.00
2023-10-10T09:58:02.349Z,100.00
2023-10-10T10:00:48.709Z,100.00
2023-10-10T10:03:32.572Z,100.00
2023-10-10T10:06:03.119Z,100.00
2023-10-10T10:08:48.761Z,100.00
2023-10-10T10:11:27.375Z,100.00
2023-10-10T10:14:22.152Z,100.00
2023-10-10T10:16:55.487Z,100.00
2023-10-10T10:19:29.095Z,100.00
2023-10-10T10:22:14.924Z,100.00
2023-10-10T10:24:47.245Z,100.00
2023-10-10T10:27:26.566Z,100.00
2023-10-10T10:30:30.548Z,100.00
2023-10-10T10:33:00.987Z,100.00
2023-10-10T10:36:06.948Z,100.00
2023-10-10T10:38:35.489Z,100.00
2023-10-10T10:41:08.602Z,100.00
2023-10-10T10:43:43.439Z,100.00
2023-10-10T10:46:17.024Z,100.00
2023-10-10T10:48:49.586Z,100.00
2023-10-10T10:51:48.917Z,100.00
2023-10-10T10:54:39.508Z,100.00
2023-10-10T10:57:07.266Z,100.00
2023-10-10T10:59:46.782Z,100.00
2023-10-10T11:02:17.324Z,100.00
2023-10-10T11:04:51.660Z,100.00
2023-10-10T11:07:29.962Z,100.00
2023-10-10T11:10:08.178Z,100.00
2023-10-10T11:12:38.074Z,100.00
2023-10-10T11:15:08.762Z,100.00
2023-10-10T11:17:41.982Z,100.00
2023-10-10T11:20:27.641Z,100.00
2023-10-10T11:22:56.845Z,100.00
2023-10-10T11:25:42.469Z,99.88
2023-10-10T11:28:23.066Z,99.50
2023-10-10T11:30:51.512Z,96.96
2023-10-10T11:33:32.402Z,96.73
2023-10-10T11:36:30.325Z,95.99
2023-10-10T11:39:15.125Z,91.07
2023-10-10T11:41:41.651Z,91.97
2023-10-10T11:44:08.316Z,89.59
2023-10-10T11:46:35.101Z,87.51
2023-10-10T11:49:01.692Z,89.01
2023-10-10T11:51:35.677Z,89.22
2023-10-10T11:54:02.300Z,90.84
2023-10-10T11:56:32.580Z,90.57
2023-10-10T11:58:59.221Z,91.59
2023-10-10T12:01:44.069Z,92.43
2023-10-10T12:04:22.294Z,92.23
2023-10-10T12:06:48.824Z,92.32
2023-10-10T12:09:20.076Z,93.24
2023-10-10T12:11:46.666Z,93.18
2023-10-10T12:14:14.076Z,92.50
2023-10-10T12:16:40.674Z,90.61
2023-10-10T12:19:07.217Z,91.15
2023-10-10T12:21:33.725Z,88.60
2023-10-10T12:24:02.887Z,88.93
2023-10-10T12:26:31.394Z,89.03
2023-10-10T12:28:58.580Z,89.78
2023-10-10T12:31:25.162Z,87.98
2023-10-10T12:33:54.496Z,88.21
2023-10-10T12:36:30.614Z,88.37
2023-10-10T12:38:59.429Z,86.98
2023-10-10T12:41:29.540Z,87.55
2023-10-10T12:43:56.137Z,87.19
2023-10-10T12:46:22.974Z,86.42
2023-10-10T12:48:52.883Z,84.75
2023-10-10T12:51:23.539Z,82.44
2023-10-10T12:53:50.915Z,82.65
2023-10-10T12:56:22.605Z,82.71
2023-10-10T12:59:05.185Z,83.79
2023-10-10T13:01:36.960Z,83.58
2023-10-10T13:04:09.032Z,82.63
2023-10-10T13:06:37.213Z,83.54
2023-10-10T13:09:06.187Z,82.47
2023-10-10T13:11:45.051Z,83.53
2023-10-10T13:14:16.079Z,83.75
2023-10-10T13:16:45.344Z,81.41
2023-10-10T13:19:13.201Z,81.60
2023-10-10T13:21:40.513Z,82.56
2023-10-10T13:24:15.261Z,76.63
2023-10-10T13:26:43.952Z,78.00
2023-10-10T13:29:10.521Z,77.29
2023-10-10T13:31:42.333Z,76.15
2023-10-10T13:34:08.927Z,73.66
2023-10-10T13:36:35.435Z,72.21
2023-10-10T13:39:06.916Z,71.26
2023-10-10T13:41:37.254Z,71.55
2023-10-10T13:44:05.103Z,71.42
2023-10-10T13:46:36.977Z,72.38
2023-10-10T13:49:10.305Z,72.88
2023-10-10T13:51:43.045Z,72.32
2023-10-10T13:54:09.749Z,73.75
2023-10-10T13:56:36.467Z,74.24
2023-10-10T13:59:03.489Z,75.13
2023-10-10T14:01:30.284Z,74.64
2023-10-10T14:04:05.803Z,75.59
2023-10-10T14:06:46.648Z,75.90
2023-10-10T14:09:26.611Z,76.90
2023-10-10T14:12:08.300Z,77.75
2023-10-10T14:14:35.051Z,76.25
2023-10-10T14:17:01.728Z,76.93
2023-10-10T14:19:28.265Z,77.62
2023-10-10T14:21:54.922Z,78.01
2023-10-10T14:24:22.133Z,78.70
2023-10-10T14:26:50.062Z,79.18
2023-10-10T14:29:17.587Z,79.27
2023-10-10T14:31:46.120Z,78.50
2023-10-10T14:34:21.595Z,78.10
2023-10-10T14:36:52.033Z,77.56
2023-10-10T14:39:45.593Z,77.90
2023-10-10T14:42:15.013Z,77.79
2023-10-10T14:44:42.112Z,77.99
2023-10-10T14:47:11.064Z,77.01
2023-10-10T14:49:39.964Z,75.93
2023-10-10T14:52:07.813Z,76.69
2023-10-10T14:54:39.558Z,76.25
2023-10-10T14:57:07.029Z,75.91
2023-10-10T14:59:34.975Z,73.02
2023-10-10T15:02:02.569Z,69.46
2023-10-10T15:04:33.160Z,65.88
2023-10-10T15:07:00.445Z,64.81
2023-10-10T15:09:27.052Z,64.23
2023-10-10T15:11:58.238Z,65.25
2023-10-10T15:14:25.213Z,64.85
2023-10-10T15:16:52.390Z,63.73
2023-10-10T15:19:19.117Z,63.67
2023-10-10T15:21:51.804Z,65.42
2023-10-10T15:24:19.312Z,66.71
2023-10-10T15:26:52.657Z,66.46
2023-10-10T15:29:22.428Z,66.98
2023-10-10T15:31:51.229Z,68.28
2023-10-10T15:34:18.137Z,67.70
2023-10-10T15:36:47.674Z,68.87
2023-10-10T15:39:15.858Z,68.10
2023-10-10T15:41:44.060Z,67.91
2023-10-10T15:44:13.598Z,68.79
2023-10-10T15:46:43.871Z,69.63
2023-10-10T15:49:29.114Z,70.06
2023-10-10T15:52:04.610Z,70.15
2023-10-10T15:54:35.289Z,71.54
2023-10-10T15:57:09.902Z,71.98
2023-10-10T15:59:42.982Z,72.50
2023-10-10T16:02:11.265Z,73.70
2023-10-10T16:04:43.906Z,75.60
2023-10-10T16:07:12.077Z,78.00
2023-10-10T16:09:38.562Z,78.23
2023-10-10T16:12:13.962Z,79.60
2023-10-10T16:14:41.101Z,80.21
2023-10-10T16:17:07.745Z,80.56
2023-10-10T16:19:37.140Z,81.83
2023-10-10T16:22:06.330Z,82.99
2023-10-10T16:24:33.626Z,83.38
2023-10-10T16:27:00.704Z,84.36
2023-10-10T16:29:34.446Z,83.29
2023-10-10T16:32:08.649Z,84.07
2023-10-10T16:34:43.482Z,84.20
2023-10-10T16:37:14.738Z,84.18
2023-10-10T16:39:45.642Z,85.43
2023-10-10T16:42:13.019Z,86.96
2023-10-10T16:44:39.703Z,86.18
2023-10-10T16:47:06.313Z,87.11
2023-10-10T16:49:33.454Z,87.00
2023-10-10T16:52:00.500Z,86.67
2023-10-10T16:54:31.838Z,86.85
2023-10-10T16:56:58.886Z,86.47
2023-10-10T16:59:25.597Z,87.57
2023-10-10T17:01:52.205Z,87.34
2023-10-10T17:04:20.573Z,87.94
2023-10-10T17:06:49.957Z,88.88
2023-10-10T17:09:16.896Z,89.24
2023-10-10T17:11:43.724Z,89.65
2023-10-10T17:14:13.333Z,90.55
2023-10-10T17:16:40.838Z,90.85
2023-10-10T17:19:17.090Z,91.22
2023-10-10T17:21:48.580Z,91.63
2023-10-10T17:24:16.556Z,92.12
2023-10-10T17:26:45.135Z,91.74
2023-10-10T17:29:16.208Z,91.57
2023-10-10T17:31:43.331Z,91.94
2023-10-10T17:34:10.078Z,92.00
2023-10-10T17:36:38.247Z,92.49
2023-10-10T17:39:05.572Z,92.00
2023-10-10T17:41:36.040Z,92.96
2023-10-10T17:44:10.415Z,92.77
2023-10-10T17:46:37.680Z,92.88
2023-10-10T17:49:06.185Z,92.54
2023-10-10T17:51:36.261Z,92.87
2023-10-10T17:54:03.782Z,93.13
2023-10-10T17:56:30.549Z,93.02
2023-10-10T17:58:57.084Z,92.77
2023-10-10T18:01:23.772Z,91.97
2023-10-10T18:03:55.452Z,91.70
2023-10-10T18:06:24.580Z,91.63
2023-10-10T18:09:02.015Z,91.61
2023-10-10T18:11:33.174Z,91.22
2023-10-10T18:13:59.866Z,91.24
2023-10-10T18:16:26.344Z,90.87
2023-10-10T18:18:53.719Z,90.98
2023-10-10T18:21:21.512Z,90.46
2023-10-10T18:23:48.662Z,90.10
2023-10-10T18:26:23.741Z,90.03
2023-10-10T18:28:53.272Z,89.76
2023-10-10T18:31:30.513Z,89.84
2023-10-10T18:33:57.802Z,90.07
2023-10-10T18:36:24.653Z,90.10
2023-10-10T18:38:55.135Z,89.22
2023-10-10T18:41:24.096Z,88.68
2023-10-10T18:43:52.203Z,89.10
2023-10-10T18:46:18.858Z,88.66
2023-10-10T18:48:46.639Z,88.76
2023-10-10T18:51:15.199Z,88.43
2023-10-10T18:53:46.289Z,88.85
2023-10-10T18:56:13.026Z,87.91
2023-10-10T18:58:40.032Z,88.49
2023-10-10T19:01:08.691Z,88.86
2023-10-10T19:03:35.440Z,88.61
2023-10-10T19:06:02.194Z,89.17
2023-10-10T19:10:55.425Z,89.24
2023-10-10T19:13:22.045Z,89.55
2023-10-10T19:15:48.862Z,89.14
2023-10-10T19:18:17.071Z,89.32
2023-10-10T19:20:44.579Z,89.45
2023-10-10T19:23:11.795Z,89.09
2023-10-10T19:25:48.006Z,88.79
2023-10-10T19:28:18.737Z,89.45
2023-10-10T19:30:46.115Z,89.62
2023-10-10T19:33:15.811Z,89.05
2023-10-10T19:35:46.116Z,89.81
2023-10-10T19:38:13.216Z,89.67
2023-10-10T19:40:44.628Z,90.14
2023-10-10T19:43:12.489Z,89.91
2023-10-10T19:45:40.213Z,89.86
2023-10-10T19:48:07.912Z,89.00
2023-10-10T19:50:39.474Z,89.87
2023-10-10T19:53:07.077Z,88.85
2023-10-10T19:55:35.252Z,88.60
2023-10-10T19:58:02.179Z,88.91
2023-10-10T20:00:28.853Z,88.82
2023-10-10T20:02:58.692Z,88.75
2023-10-10T20:05:25.605Z,89.37
2023-10-10T20:07:54.769Z,89.39
2023-10-10T20:10:23.534Z,90.32
2023-10-10T20:12:55.459Z,89.47
2023-10-10T20:15:25.413Z,89.54
2023-10-10T20:17:52.875Z,89.47
2023-10-10T20:20:27.048Z,89.25
2023-10-10T20:22:57.808Z,89.30
2023-10-10T20:25:25.141Z,89.44
2023-10-10T20:27:51.902Z,89.55
2023-10-10T20:30:20.593Z,89.49
2023-10-10T20:32:48.447Z,89.61
2023-10-10T20:35:25.754Z,90.15
2023-10-10T20:37:57.641Z,90.75
2023-10-10T20:40:30.665Z,91.28
2023-10-10T20:43:01.073Z,92.00
2023-10-10T20:45:30.136Z,91.64
2023-10-10T20:47:57.854Z,90.95
2023-10-10T20:50:29.253Z,91.26
2023-10-10T20:52:58.088Z,90.86
2023-10-10T20:55:28.654Z,91.10
2023-10-10T20:57:58.967Z,91.26
2023-10-10T21:00:30.018Z,90.49
2023-10-10T21:02:58.710Z,90.48
2023-10-10T21:05:25.862Z,89.63
2023-10-10T21:07:53.284Z,89.05
2023-10-10T21:10:20.627Z,88.44
2023-10-10T21:12:48.922Z,87.27
2023-10-10T21:15:17.416Z,87.42
2023-10-10T21:18:00.328Z,87.48
2023-10-10T21:20:29.011Z,87.84
2023-10-10T21:23:00.212Z,87.15
2023-10-10T21:25:27.932Z,86.39
2023-10-10T21:27:58.325Z,86.45
2023-10-10T21:30:30.170Z,86.22
2023-10-10T21:32:58.595Z,87.22
2023-10-10T21:35:31.273Z,86.16
2023-10-10T21:37:59.856Z,86.36
2023-10-10T21:40:28.254Z,86.48
2023-10-10T21:42:56.262Z,86.90
2023-10-10T21:45:24.658Z,87.20
2023-10-10T21:47:55.367Z,87.46
2023-10-10T21:50:22.441Z,87.61
2023-10-10T21:52:48.986Z,87.50
2023-10-10T21:55:20.506Z,87.69
2023-10-10T21:57:51.068Z,88.07
2023-10-10T22:00:25.599Z,87.64
2023-10-10T22:02:53.721Z,88.29
2023-10-10T22:05:20.754Z,88.41
2023-10-10T22:07:48.455Z,87.92
2023-10-10T22:10:21.804Z,87.75
2023-10-10T22:12:51.650Z,88.41
2023-10-10T22:15:18.784Z,88.19
2023-10-10T22:17:45.660Z,89.34
2023-10-10T22:20:13.209Z,89.34
2023-10-10T22:22:43.128Z,89.93
2023-10-10T22:25:20.246Z,90.02
2023-10-10T22:27:47.862Z,90.54
2023-10-10T22:30:18.754Z,91.21
2023-10-10T22:32:48.773Z,91.61
2023-10-10T22:35:20.160Z,91.26
2023-10-10T22:37:47.830Z,91.20
2023-10-10T22:40:35.526Z,90.74
2023-10-10T22:43:03.402Z,90.86
2023-10-10T22:45:34.946Z,90.78
2023-10-10T22:48:02.856Z,90.89
2023-10-10T22:50:31.703Z,91.17
2023-10-10T22:53:00.105Z,92.31
2023-10-10T22:55:29.529Z,92.97
2023-10-10T22:57:58.512Z,93.70
2023-10-10T23:00:27.570Z,94.38
2023-10-10T23:02:59.569Z,95.28
2023-10-10T23:05:28.348Z,95.97
2023-10-10T23:07:58.728Z,96.86
2023-10-10T23:10:25.344Z,97.61
2023-10-10T23:12:53.344Z,98.48
2023-10-10T23:15:27.555Z,98.96
2023-10-10T23:18:03.021Z,99.05
2023-10-10T23:20:34.370Z,99.22
2023-10-10T23:23:05.747Z,99.80
2023-10-10T23:25:32.807Z,100.00
2023-10-10T23:27:59.798Z,100.00
2023-10-10T23:30:30.395Z,100.00
2023-10-10T23:32:58.573Z,100.00
2023-10-10T23:35:28.023Z,100.00
2023-10-10T23:38:02.154Z,100.00
2023-10-10T23:40:41.100Z,100.00
2023-10-10T23:43:09.819Z,100.00
2023-10-10T23:45:43.218Z,100.00
2023-10-10T23:48:16.462Z,100.00
2023-10-10T23:50:44.080Z,100.00
2023-10-10T23:53:10.899Z,100.00
2023-10-10T23:55:40.412Z,100.00
2023-10-10T23:58:12.769Z,100.00
